createdAt,value
2022-11-29T00:02:45.651Z,13.62
2022-11-29T00:05:47.366Z,14.27
2022-11-29T00:08:49.558Z,14.25
2022-11-29T00:12:09.867Z,13.48
2022-11-29T00:15:11.923Z,15.82
2022-11-29T00:18:13.559Z,18.52
2022-11-29T00:21:15.111Z,15.65
2022-11-29T00:24:17.144Z,13.05
2022-11-29T00:27:18.716Z,12.00
2022-11-29T00:30:21.128Z,12.10
2022-11-29T00:33:22.713Z,11.73
2022-11-29T00:36:24.630Z,11.70
2022-11-29T00:39:26.262Z,11.98
2022-11-29T00:42:27.869Z,11.40
2022-11-29T00:45:29.446Z,12.05
2022-11-29T00:48:31.052Z,11.57
2022-11-29T00:51:32.775Z,11.80
2022-11-29T00:54:34.355Z,10.45
2022-11-29T00:57:35.930Z,10.65
2022-11-29T01:00:37.505Z,11.88
2022-11-29T01:03:39.422Z,12.27
2022-11-29T01:06:41.054Z,12.50
2022-11-29T01:09:42.615Z,14.63
2022-11-29T01:12:44.220Z,10.60
2022-11-29T01:15:45.771Z,10.95
2022-11-29T01:18:47.370Z,11.15
2022-11-29T01:21:48.923Z,11.85
2022-11-29T01:24:50.578Z,11.12
2022-11-29T01:27:52.154Z,11.40
2022-11-29T01:30:53.953Z,11.02
2022-11-29T01:33:57.408Z,12.55
2022-11-29T01:36:58.988Z,10.80
2022-11-29T01:40:00.521Z,10.25
2022-11-29T01:43:02.072Z,11.60
2022-11-29T01:46:03.674Z,11.20
2022-11-29T01:49:13.310Z,12.80
2022-11-29T01:52:20.081Z,12.05
2022-11-29T01:55:21.777Z,13.03
2022-11-29T01:58:23.653Z,11.57
2022-11-29T02:01:26.135Z,11.05
2022-11-29T02:04:32.418Z,13.13
2022-11-29T02:07:34.187Z,12.88
2022-11-29T02:10:43.643Z,13.68
2022-11-29T02:14:16.371Z,13.77
2022-11-29T02:17:33.062Z,13.10
2022-11-29T02:20:40.673Z,13.52
2022-11-29T02:27:20.734Z,14.90
2022-11-29T02:30:40.867Z,14.48
2022-11-29T02:33:59.629Z,14.27
2022-11-29T02:37:16.155Z,12.13
2022-11-29T02:40:45.951Z,13.43
2022-11-29T02:44:20.087Z,13.00
2022-11-29T02:47:33.521Z,12.50
2022-11-29T02:50:41.393Z,15.23
2022-11-29T02:54:23.919Z,13.05
2022-11-29T02:57:37.359Z,14.35
2022-11-29T03:00:46.741Z,13.65
2022-11-29T03:03:58.190Z,13.90
2022-11-29T03:07:07.358Z,14.95
2022-11-29T03:10:29.795Z,13.65
2022-11-29T03:13:52.967Z,12.57
2022-11-29T03:17:44.096Z,12.65
2022-11-29T03:21:09.897Z,12.57
2022-11-29T03:24:21.132Z,14.23
2022-11-29T03:28:01.029Z,12.05
2022-11-29T03:31:17.985Z,11.18
2022-11-29T03:34:59.747Z,12.95
2022-11-29T03:38:11.227Z,13.18
2022-11-29T03:41:15.505Z,12.80
2022-11-29T03:44:27.788Z,15.85
2022-11-29T03:47:38.494Z,13.62
2022-11-29T03:50:49.607Z,15.70
2022-11-29T03:54:22.646Z,14.38
2022-11-29T03:57:34.508Z,13.48
2022-11-29T04:00:57.294Z,12.93
2022-11-29T04:04:23.788Z,13.93
2022-11-29T04:07:47.089Z,12.50
2022-11-29T04:11:00.860Z,12.15
2022-11-29T04:14:20.840Z,13.73
2022-11-29T04:17:53.655Z,13.80
2022-11-29T04:21:36.475Z,13.52
2022-11-29T04:24:44.162Z,13.02
2022-11-29T04:28:13.626Z,14.57
2022-11-29T04:31:38.022Z,14.30
2022-11-29T04:34:42.493Z,15.70
2022-11-29T04:37:53.013Z,15.15
2022-11-29T04:41:12.706Z,13.70
2022-11-29T04:44:36.020Z,13.43
2022-11-29T04:48:02.552Z,14.05
2022-11-29T04:51:53.172Z,14.52
2022-11-29T04:55:31.278Z,13.70
2022-11-29T04:58:53.496Z,14.18
2022-11-29T05:02:06.970Z,15.85
2022-11-29T05:05:24.539Z,13.45
2022-11-29T05:08:32.124Z,13.57
2022-11-29T05:15:16.649Z,13.82
2022-11-29T05:18:57.592Z,14.98
2022-11-29T05:22:03.983Z,14.38
2022-11-29T05:25:11.369Z,14.52
2022-11-29T05:28:31.852Z,13.35
2022-11-29T05:31:51.751Z,14.63
2022-11-29T05:35:27.362Z,14.82
2022-11-29T05:38:37.870Z,15.00
2022-11-29T05:42:07.360Z,15.55
2022-11-29T05:45:18.034Z,15.95
2022-11-29T05:48:45.451Z,15.98
2022-11-29T05:52:04.194Z,16.25
2022-11-29T05:55:19.599Z,16.92
2022-11-29T05:58:56.634Z,15.55
2022-11-29T06:01:58.201Z,15.10
2022-11-29T06:05:38.624Z,16.37
2022-11-29T06:08:50.618Z,16.58
2022-11-29T06:12:12.872Z,15.10
2022-11-29T06:15:28.554Z,18.02
2022-11-29T06:18:30.161Z,17.90
2022-11-29T06:21:46.335Z,16.60
2022-11-29T06:25:17.202Z,19.58
2022-11-29T06:28:27.154Z,18.40
2022-11-29T06:31:42.389Z,17.62
2022-11-29T06:34:59.266Z,18.98
2022-11-29T06:38:23.168Z,21.70
2022-11-29T06:41:25.213Z,20.67
2022-11-29T06:44:27.075Z,21.25
2022-11-29T06:47:35.017Z,21.52
2022-11-29T06:50:48.272Z,21.15
2022-11-29T06:53:59.127Z,19.98
2022-11-29T06:57:30.622Z,21.17
2022-11-29T07:00:48.452Z,22.95
2022-11-29T07:04:07.377Z,22.17
2022-11-29T07:07:15.758Z,22.92
2022-11-29T07:10:19.435Z,23.45
2022-11-29T07:13:21.618Z,22.92
2022-11-29T07:16:33.887Z,22.42
2022-11-29T07:19:50.886Z,23.62
2022-11-29T07:23:32.768Z,24.02
2022-11-29T07:26:59.411Z,22.98
2022-11-29T07:30:13.040Z,22.98
2022-11-29T07:33:28.531Z,23.23
2022-11-29T07:36:53.302Z,22.73
2022-11-29T07:40:15.960Z,22.20
2022-11-29T07:43:38.881Z,24.40
2022-11-29T07:46:40.457Z,24.58
2022-11-29T07:49:42.039Z,26.52
2022-11-29T07:52:44.056Z,24.27
2022-11-29T07:55:46.814Z,24.15
2022-11-29T07:58:48.449Z,23.58
2022-11-29T08:01:50.120Z,25.95
2022-11-29T08:04:52.121Z,27.85
2022-11-29T08:07:54.560Z,24.35
2022-11-29T08:10:56.190Z,24.23
2022-11-29T08:14:00.152Z,24.23
2022-11-29T08:17:01.680Z,23.95
2022-11-29T08:20:04.483Z,23.02
2022-11-29T08:23:06.124Z,24.25
2022-11-29T08:26:07.687Z,24.42
2022-11-29T08:29:09.259Z,24.87
2022-11-29T08:32:10.851Z,23.12
2022-11-29T08:35:12.527Z,21.45
2022-11-29T08:38:14.107Z,20.62
2022-11-29T08:41:17.465Z,20.37
2022-11-29T08:44:19.068Z,18.60
2022-11-29T08:47:36.094Z,21.83
2022-11-29T08:50:37.659Z,20.73
2022-11-29T08:53:42.136Z,21.42
2022-11-29T09:00:06.957Z,15.38
2022-11-29T09:03:27.402Z,15.80
2022-11-29T09:06:34.499Z,16.35
2022-11-29T09:09:36.051Z,17.83
2022-11-29T09:12:39.869Z,16.60
2022-11-29T09:15:43.389Z,18.92
2022-11-29T09:18:51.255Z,16.45
2022-11-29T09:21:53.674Z,18.33
2022-11-29T09:24:55.282Z,17.92
2022-11-29T09:27:59.079Z,19.58
2022-11-29T09:31:05.489Z,19.40
2022-11-29T09:34:07.065Z,18.95
2022-11-29T09:37:08.595Z,18.35
2022-11-29T09:40:23.464Z,20.08
2022-11-29T09:43:44.204Z,20.65
2022-11-29T09:47:00.875Z,18.12
2022-11-29T09:50:30.708Z,17.90
2022-11-29T09:53:51.660Z,18.00
2022-11-29T09:56:55.679Z,19.50
2022-11-29T10:00:07.338Z,17.77
2022-11-29T10:03:23.356Z,18.15
2022-11-29T10:06:24.944Z,19.60
2022-11-29T10:09:42.144Z,20.15
2022-11-29T10:12:56.595Z,21.20
2022-11-29T10:16:09.249Z,19.15
2022-11-29T10:19:42.510Z,19.20
2022-11-29T10:22:54.536Z,20.75
2022-11-29T10:25:58.488Z,20.67
2022-11-29T10:29:00.111Z,21.92
2022-11-29T10:32:10.081Z,20.00
2022-11-29T10:35:17.756Z,21.12
2022-11-29T10:38:34.514Z,21.15
2022-11-29T10:41:36.138Z,20.17
2022-11-29T10:44:37.708Z,21.05
2022-11-29T10:47:39.506Z,23.60
2022-11-29T10:50:44.088Z,20.70
2022-11-29T10:53:46.674Z,23.20
2022-11-29T10:56:48.654Z,20.67
2022-11-29T11:00:00.717Z,20.52
2022-11-29T11:03:42.483Z,20.85
2022-11-29T11:06:45.751Z,21.75
2022-11-29T11:09:50.518Z,21.65
2022-11-29T11:13:08.138Z,29.33
2022-11-29T11:16:24.156Z,35.13
2022-11-29T11:19:25.651Z,21.83
2022-11-29T11:22:28.685Z,21.95
2022-11-29T11:25:37.010Z,22.25
2022-11-29T11:29:00.237Z,21.33
2022-11-29T11:32:02.107Z,21.75
2022-11-29T11:35:22.364Z,22.13
2022-11-29T11:38:23.996Z,23.73
2022-11-29T11:42:03.006Z,23.17
2022-11-29T11:48:24.351Z,22.30
2022-11-29T11:51:25.949Z,23.58
2022-11-29T11:54:29.165Z,22.00
2022-11-29T11:57:31.848Z,21.15
2022-11-29T12:01:04.283Z,24.40
2022-11-29T12:04:21.916Z,21.55
2022-11-29T12:08:05.628Z,23.33
2022-11-29T12:11:02.805Z,23.17
2022-11-29T12:14:18.130Z,21.77
2022-11-29T12:17:30.388Z,20.67
2022-11-29T12:20:45.145Z,22.48
2022-11-29T12:23:57.567Z,22.60
2022-11-29T12:27:03.900Z,23.90
2022-11-29T12:30:14.144Z,24.95
2022-11-29T12:33:24.974Z,23.15
2022-11-29T12:36:51.842Z,23.45
2022-11-29T12:40:05.942Z,24.65
2022-11-29T12:43:28.919Z,23.77
2022-11-29T12:46:31.310Z,23.83
2022-11-29T12:50:01.215Z,24.73
2022-11-29T12:53:14.480Z,24.95
2022-11-29T12:56:36.533Z,24.95
2022-11-29T12:59:38.010Z,25.55
2022-11-29T13:03:17.439Z,23.58
2022-11-29T13:06:29.654Z,23.70
2022-11-29T13:09:43.428Z,24.87
2022-11-29T13:12:53.920Z,25.80
2022-11-29T13:16:07.171Z,25.52
2022-11-29T13:19:18.419Z,28.42
2022-11-29T13:22:44.795Z,26.92
2022-11-29T13:25:54.484Z,26.37
2022-11-29T13:28:57.696Z,26.00
2022-11-29T13:32:10.089Z,29.30
2022-11-29T13:35:26.837Z,44.67
2022-11-29T13:38:45.746Z,25.48
2022-11-29T13:42:10.531Z,24.73
2022-11-29T13:45:31.852Z,24.42
2022-11-29T13:48:45.826Z,25.15
2022-11-29T13:51:47.601Z,25.55
2022-11-29T13:55:03.540Z,25.20
2022-11-29T13:58:21.975Z,26.83
2022-11-29T14:01:26.744Z,32.03
2022-11-29T14:04:45.875Z,26.70
2022-11-29T14:08:47.680Z,22.90
2022-11-29T14:12:03.402Z,24.25
2022-11-29T14:15:25.547Z,24.90
2022-11-29T14:18:42.141Z,25.85
2022-11-29T14:21:59.175Z,26.25
2022-11-29T14:25:16.347Z,29.63
2022-11-29T14:28:24.419Z,26.92
2022-11-29T14:31:51.756Z,24.95
2022-11-29T14:35:17.568Z,28.23
2022-11-29T14:38:31.175Z,33.25
2022-11-29T14:41:53.045Z,31.25
2022-11-29T14:44:59.929Z,29.67
2022-11-29T14:48:02.817Z,28.20
2022-11-29T14:51:16.193Z,27.95
2022-11-29T14:54:19.915Z,29.92
2022-11-29T14:57:49.711Z,42.08
2022-11-29T15:01:01.773Z,29.37
2022-11-29T15:04:09.811Z,26.87
2022-11-29T15:07:17.488Z,26.83
2022-11-29T15:10:24.187Z,32.35
2022-11-29T15:13:31.963Z,38.27
2022-11-29T15:16:42.920Z,37.17
2022-11-29T15:19:50.571Z,43.75
2022-11-29T15:23:00.906Z,30.90
2022-11-29T15:26:02.519Z,21.42
2022-11-29T15:29:18.952Z,28.90
2022-11-29T15:32:28.610Z,29.70
2022-11-29T15:35:32.515Z,31.52
2022-11-29T15:38:45.154Z,25.92
2022-11-29T15:41:46.700Z,26.35
2022-11-29T15:44:49.048Z,24.10
2022-11-29T15:47:50.833Z,23.65
2022-11-29T15:50:55.371Z,25.60
2022-11-29T15:54:12.846Z,24.67
2022-11-29T16:00:35.976Z,23.58
2022-11-29T16:03:41.003Z,27.40
2022-11-29T16:06:44.327Z,27.30
2022-11-29T16:09:51.716Z,29.58
2022-11-29T16:12:59.406Z,26.50
2022-11-29T16:16:17.003Z,26.00
2022-11-29T16:19:22.115Z,26.95
2022-11-29T16:22:24.342Z,26.77
2022-11-29T16:25:27.135Z,27.40
2022-11-29T16:28:40.890Z,28.52
2022-11-29T16:31:42.563Z,29.25
2022-11-29T16:34:45.872Z,28.70
2022-11-29T16:37:48.362Z,29.25
2022-11-29T16:41:07.920Z,29.80
2022-11-29T16:44:42.335Z,27.40
2022-11-29T16:47:52.946Z,26.58
2022-11-29T16:51:18.209Z,26.70
2022-11-29T16:54:25.977Z,25.73
2022-11-29T16:57:28.830Z,29.87
2022-11-29T17:00:33.635Z,31.52
2022-11-29T17:03:35.802Z,34.63
2022-11-29T17:06:38.191Z,38.08
2022-11-29T17:09:40.419Z,34.45
2022-11-29T17:12:47.649Z,30.48
2022-11-29T17:15:49.745Z,29.95
2022-11-29T17:18:54.978Z,28.45
2022-11-29T17:21:57.252Z,31.80
2022-11-29T17:24:58.861Z,30.95
2022-11-29T17:28:00.454Z,30.85
2022-11-29T17:31:26.763Z,40.40
2022-11-29T17:34:28.709Z,35.03
2022-11-29T17:37:31.169Z,39.00
2022-11-29T17:40:33.086Z,45.63
2022-11-29T17:43:35.717Z,45.28
2022-11-29T17:46:37.877Z,46.63
2022-11-29T17:49:39.902Z,52.33
2022-11-29T17:52:42.034Z,71.03
2022-11-29T17:55:43.665Z,63.75
2022-11-29T17:58:45.863Z,51.53
2022-11-29T18:01:47.881Z,52.72
2022-11-29T18:04:49.992Z,51.88
2022-11-29T18:07:59.144Z,61.80
2022-11-29T18:11:08.610Z,64.97
2022-11-29T18:14:11.826Z,59.72
2022-11-29T18:17:13.891Z,56.85
2022-11-29T18:20:16.013Z,52.75
2022-11-29T18:23:18.072Z,53.40
2022-11-29T18:26:30.078Z,54.05
2022-11-29T18:29:46.284Z,52.28
2022-11-29T18:32:57.255Z,52.70
2022-11-29T18:36:06.466Z,53.20
2022-11-29T18:39:10.695Z,47.75
2022-11-29T18:42:13.204Z,47.95
2022-11-29T18:45:15.261Z,46.78
2022-11-29T18:48:17.712Z,48.22
2022-11-29T18:51:20.986Z,47.67
2022-11-29T18:54:23.014Z,49.28
2022-11-29T18:57:25.038Z,47.83
2022-11-29T19:00:26.761Z,42.05
2022-11-29T19:03:28.706Z,44.70
2022-11-29T19:06:39.307Z,40.92
2022-11-29T19:09:46.848Z,91.95
2022-11-29T19:12:51.320Z,80.90
2022-11-29T19:15:54.776Z,72.37
2022-11-29T19:18:58.666Z,103.90
2022-11-29T19:22:01.070Z,108.95
2022-11-29T19:25:03.122Z,62.40
2022-11-29T19:28:11.111Z,68.32
2022-11-29T19:31:18.703Z,68.80
2022-11-29T19:34:20.849Z,39.72
2022-11-29T19:37:23.002Z,37.55
2022-11-29T19:40:24.791Z,49.15
2022-11-29T19:43:26.797Z,53.22
2022-11-29T19:46:33.380Z,51.08
2022-11-29T19:49:37.279Z,51.67
2022-11-29T19:52:39.321Z,56.95
2022-11-29T19:55:44.113Z,34.67
2022-11-29T19:58:48.185Z,59.25
2022-11-29T20:01:51.140Z,75.30
2022-11-29T20:04:54.300Z,40.45
2022-11-29T20:07:56.484Z,27.45
2022-11-29T20:11:10.604Z,24.30
2022-11-29T20:14:13.436Z,23.05
2022-11-29T20:17:15.587Z,21.10
2022-11-29T20:20:20.994Z,20.45
2022-11-29T20:23:23.081Z,20.48
2022-11-29T20:26:26.318Z,19.58
2022-11-29T20:29:31.158Z,19.33
2022-11-29T20:32:35.940Z,19.55
2022-11-29T20:35:38.859Z,19.05
2022-11-29T20:38:53.213Z,20.10
2022-11-29T20:42:06.658Z,19.98
2022-11-29T20:45:10.305Z,20.02
2022-11-29T20:48:23.262Z,20.10
2022-11-29T20:51:37.760Z,19.75
2022-11-29T20:54:39.846Z,18.50
2022-11-29T20:57:42.008Z,19.60
2022-11-29T21:00:44.300Z,20.77
2022-11-29T21:03:46.857Z,20.45
2022-11-29T21:06:49.311Z,19.40
2022-11-29T21:09:50.996Z,19.50
2022-11-29T21:12:52.893Z,20.65
2022-11-29T21:15:55.397Z,20.27
2022-11-29T21:18:59.995Z,20.20
2022-11-29T21:22:10.736Z,19.10
2022-11-29T21:25:33.707Z,19.62
2022-11-29T21:28:42.083Z,18.52
2022-11-29T21:31:45.812Z,19.17
2022-11-29T21:34:47.876Z,19.08
2022-11-29T21:38:00.370Z,20.02
2022-11-29T21:41:02.213Z,19.00
2022-11-29T21:44:07.119Z,19.75
2022-11-29T21:47:09.510Z,19.83
2022-11-29T21:50:13.097Z,19.67
2022-11-29T21:53:14.639Z,19.62
2022-11-29T21:56:16.270Z,18.98
2022-11-29T21:59:17.835Z,19.45
2022-11-29T22:02:19.515Z,18.48
2022-11-29T22:05:21.150Z,19.23
2022-11-29T22:08:22.794Z,20.60
2022-11-29T22:11:36.558Z,19.33
2022-11-29T22:14:38.153Z,18.30
2022-11-29T22:17:40.359Z,17.50
2022-11-29T22:20:41.911Z,18.40
2022-11-29T22:23:43.450Z,17.85
2022-11-29T22:26:45.710Z,16.80
2022-11-29T22:29:47.249Z,17.33
2022-11-29T22:32:48.793Z,16.45
2022-11-29T22:35:50.325Z,16.85
2022-11-29T22:38:51.884Z,17.40
2022-11-29T22:41:54.953Z,17.27
2022-11-29T22:44:56.763Z,18.33
2022-11-29T22:47:58.372Z,16.95
2022-11-29T22:51:11.380Z,16.08
2022-11-29T22:54:15.502Z,15.30
2022-11-29T22:57:17.124Z,15.52
2022-11-29T23:00:18.895Z,16.62
2022-11-29T23:03:20.429Z,14.98
2022-11-29T23:06:23.493Z,15.95
2022-11-29T23:09:25.018Z,16.77
2022-11-29T23:12:26.535Z,16.00
2022-11-29T23:15:28.097Z,15.45
2022-11-29T23:18:29.854Z,15.35
2022-11-29T23:21:34.984Z,13.90
2022-11-29T23:24:36.951Z,15.30
2022-11-29T23:27:38.539Z,14.65
2022-11-29T23:30:40.163Z,15.70
2022-11-29T23:33:41.736Z,15.52
2022-11-29T23:36:48.379Z,16.90
2022-11-29T23:39:54.046Z,15.38
2022-11-29T23:42:55.639Z,15.18
2022-11-29T23:45:57.403Z,14.57
2022-11-29T23:48:58.989Z,14.32
2022-11-29T23:52:00.534Z,15.38
2022-11-29T23:55:02.366Z,14.32
2022-11-29T23:58:03.970Z,14.73
